Station History

Weather Underground - logo

Station Historical Data
Daily Summary for December 9, 2017 Units:  English    Metric   Both
« Previous Day
Next Day »
Daily Weekly Monthly Yearly Custom
  High: Low: Average:
Temperature: 64.3 °F 33.9 °F 46.2 °F
Dew Point: 39.8 °F 30.4 °F 36 °F
Humidity: 90 % 38 % 71 %
Wind Speed: 3.5 mph 0.0 mph 0.2 mph
Wind Gust: 3.5 mph - -
Wind:- - WSW
Pressure: 30.40 in 30.27 in -
Precipitation: 0.00 in    
Historical Graphs
 
 
Tabular Data for December 9, 2017
Time Temperature Dew Point Pressure Wind Wind Speed Wind Gust Humidity Rainfall Rate (Hourly)
00:00 38.9 °F 33.9 °F 30.40 in Calm     82 % 0.00 in
00:05 38.8 °F 33.8 °F 30.40 in Calm     82 % 0.00 in
00:10 38.7 °F 34.0 °F 30.40 in Calm     83 % 0.00 in
00:15 38.7 °F 34.0 °F 30.40 in Calm     83 % 0.00 in
00:25 38.6 °F 34.2 °F 30.39 in Calm     84 % 0.00 in
00:30 38.9 °F 34.2 °F 30.39 in Calm     83 % 0.00 in
00:35 39.0 °F 34.3 °F 30.39 in Calm     83 % 0.00 in
00:40 38.9 °F 34.2 °F 30.38 in Calm     83 % 0.00 in
00:45 39.2 °F 34.5 °F 30.38 in North 1.2 mph   83 % 0.00 in
00:50 39.6 °F 34.2 °F 30.38 in Calm     81 % 0.00 in
01:00 39.6 °F 33.9 °F 30.38 in Calm     80 % 0.00 in
01:05 39.5 °F 33.8 °F 30.38 in Calm     80 % 0.00 in
01:10 39.3 °F 33.6 °F 30.38 in Calm     80 % 0.00 in
01:15 39.1 °F 33.8 °F 30.37 in Calm     81 % 0.00 in
01:20 39.4 °F 34.1 °F 30.37 in Calm     81 % 0.00 in
01:25 39.6 °F 34.2 °F 30.37 in Calm     81 % 0.00 in
01:35 39.9 °F 33.9 °F 30.37 in Calm     79 % 0.00 in
01:40 39.7 °F 34.0 °F 30.38 in Calm     80 % 0.00 in
01:45 39.4 °F 34.1 °F 30.37 in Calm     81 % 0.00 in
01:50 38.8 °F 33.8 °F 30.37 in Calm     82 % 0.00 in
01:55 38.2 °F 33.5 °F 30.37 in Calm     83 % 0.00 in
02:00 38.1 °F 33.7 °F 30.37 in Calm     84 % 0.00 in
02:05 38.0 °F 33.6 °F 30.37 in Calm     84 % 0.00 in
02:10 38.1 °F 33.7 °F 30.37 in Calm     84 % 0.00 in
02:15 37.6 °F 32.9 °F 30.37 in North 1.2 mph   83 % 0.00 in
02:25 35.5 °F 31.1 °F 30.38 in Calm     84 % 0.00 in
02:30 34.8 °F 30.8 °F 30.37 in Calm     85 % 0.00 in
02:35 34.4 °F 30.6 °F 30.37 in Calm     86 % 0.00 in
02:41 34.1 °F 30.6 °F 30.37 in Calm     87 % 0.00 in
02:45 33.9 °F 30.4 °F 30.38 in Calm     87 % 0.00 in
02:51 33.9 °F 30.7 °F 30.38 in Calm     88 % 0.00 in
02:56 34.0 °F 31.1 °F 30.38 in Calm     89 % 0.00 in
03:01 34.0 °F 31.1 °F 30.38 in Calm     89 % 0.00 in
03:06 34.1 °F 31.5 °F 30.38 in Calm     90 % 0.00 in
03:11 34.3 °F 31.7 °F 30.38 in Calm     90 % 0.00 in
03:16 34.4 °F 31.8 °F 30.38 in Calm     90 % 0.00 in
03:26 34.0 °F 30.8 °F 30.38 in Calm     88 % 0.00 in
03:31 33.9 °F 30.7 °F 30.38 in Calm     88 % 0.00 in
03:36 34.1 °F 31.2 °F 30.38 in North 1.2 mph   89 % 0.00 in
03:41 34.2 °F 31.0 °F 30.38 in Calm     88 % 0.00 in
03:51 34.2 °F 31.0 °F 30.38 in Calm     88 % 0.00 in
03:56 34.4 °F 31.2 °F 30.38 in Calm     88 % 0.00 in
04:01 34.3 °F 31.1 °F 30.37 in Calm     88 % 0.00 in
04:06 34.3 °F 31.4 °F 30.37 in Calm     89 % 0.00 in
04:11 34.3 °F 31.4 °F 30.37 in Calm     89 % 0.00 in
04:21 34.2 °F 31.6 °F 30.37 in Calm     90 % 0.00 in
04:26 34.4 °F 31.8 °F 30.37 in Calm     90 % 0.00 in
04:31 34.5 °F 31.9 °F 30.37 in Calm     90 % 0.00 in
04:36 34.5 °F 31.9 °F 30.37 in Calm     90 % 0.00 in
04:41 34.6 °F 32.0 °F 30.37 in Calm     90 % 0.00 in
04:46 34.6 °F 32.0 °F 30.37 in Calm     90 % 0.00 in
04:51 34.6 °F 31.7 °F 30.37 in Calm     89 % 0.00 in
05:06 34.6 °F 31.7 °F 30.37 in Calm     89 % 0.00 in
05:11 34.5 °F 31.3 °F 30.37 in Calm     88 % 0.00 in
05:16 34.4 °F 31.5 °F 30.37 in Calm     89 % 0.00 in
05:21 34.8 °F 31.9 °F 30.37 in Calm     89 % 0.00 in
05:26 35.0 °F 32.1 °F 30.37 in Calm     89 % 0.00 in
05:31 35.0 °F 32.1 °F 30.37 in Calm     89 % 0.00 in
05:36 34.9 °F 32.0 °F 30.37 in Calm     89 % 0.00 in
05:41 34.8 °F 31.9 °F 30.37 in Calm     89 % 0.00 in
05:47 34.8 °F 31.9 °F 30.37 in Calm     89 % 0.00 in
06:07 34.8 °F 31.9 °F 30.37 in Calm     89 % 0.00 in
06:12 34.8 °F 31.9 °F 30.37 in Calm     89 % 0.00 in
06:17 34.8 °F 31.9 °F 30.37 in Calm     89 % 0.00 in
06:22 35.0 °F 32.4 °F 30.37 in Calm     90 % 0.00 in
06:32 35.0 °F 32.1 °F 30.37 in Calm     89 % 0.00 in
06:37 34.8 °F 31.6 °F 30.37 in Calm     88 % 0.00 in
06:42 34.6 °F 31.4 °F 30.37 in Calm     88 % 0.00 in
06:47 34.5 °F 31.6 °F 30.38 in Calm     89 % 0.00 in
06:52 34.3 °F 31.4 °F 30.38 in Calm     89 % 0.00 in
06:57 34.2 °F 31.3 °F 30.38 in Calm     89 % 0.00 in
07:02 34.2 °F 31.6 °F 30.38 in Calm     90 % 0.00 in
07:07 34.1 °F 31.2 °F 30.38 in Calm     89 % 0.00 in
07:12 34.1 °F 31.5 °F 30.38 in Calm     90 % 0.00 in
07:17 34.2 °F 31.6 °F 30.38 in Calm     90 % 0.00 in
07:22 34.1 °F 31.2 °F 30.38 in Calm     89 % 0.00 in
07:23 34.0 °F 31.1 °F 30.38 in Calm     89 % 0.00 in
07:28 33.9 °F 31.0 °F 30.38 in Calm     89 % 0.00 in
07:33 33.9 °F 31.0 °F 30.38 in Calm     89 % 0.00 in
07:43 34.1 °F 31.2 °F 30.38 in Calm     89 % 0.00 in
07:48 34.3 °F 31.4 °F 30.38 in Calm     89 % 0.00 in
07:53 34.9 °F 32.3 °F 30.38 in Calm     90 % 0.00 in
07:58 35.9 °F 33.3 °F 30.39 in Calm     90 % 0.00 in
08:03 36.4 °F 33.2 °F 30.39 in Calm     88 % 0.00 in
08:23 39.8 °F 35.4 °F 30.39 in Calm     84 % 0.00 in
08:28 40.6 °F 35.8 °F 30.39 in Calm     83 % 0.00 in
08:33 41.4 °F 36.3 °F 30.40 in Calm     82 % 0.00 in
08:38 41.4 °F 36.0 °F 30.40 in Calm     81 % 0.00 in
08:43 41.6 °F 36.2 °F 30.40 in Calm     81 % 0.00 in
08:48 42.6 °F 36.9 °F 30.40 in Calm     80 % 0.00 in
08:53 44.0 °F 37.9 °F 30.40 in Calm     79 % 0.00 in
08:58 44.9 °F 37.8 °F 30.40 in Calm     76 % 0.00 in
09:03 45.9 °F 38.1 °F 30.40 in Calm     74 % 0.00 in
09:08 46.8 °F 37.9 °F 30.40 in ESE 1.2 mph   71 % 0.00 in
09:13 47.8 °F 38.1 °F 30.40 in Calm     69 % 0.00 in
09:18 48.7 °F 38.2 °F 30.40 in Calm     67 % 0.00 in
09:23 49.4 °F 38.1 °F 30.40 in Calm     65 % 0.00 in
09:28 49.9 °F 38.2 °F 30.40 in Calm     64 % 0.00 in
09:33 50.1 °F 37.2 °F 30.40 in Calm     61 % 0.00 in
09:38 50.2 °F 37.3 °F 30.40 in Calm     61 % 0.00 in
09:43 50.4 °F 37.4 °F 30.40 in Calm     61 % 0.00 in
09:48 51.4 °F 38.0 °F 30.39 in South 1.2 mph 1.2 mph 60 % 0.00 in
09:53 52.2 °F 37.9 °F 30.39 in NNW 1.2 mph   58 % 0.00 in
09:58 52.6 °F 38.7 °F 30.39 in Calm     59 % 0.00 in
10:13 54.2 °F 37.9 °F 30.39 in Calm     54 % 0.00 in
10:18 54.4 °F 37.1 °F 30.39 in Calm     52 % 0.00 in
10:23 54.5 °F 37.7 °F 30.38 in Calm     53 % 0.00 in
10:28 54.4 °F 38.1 °F 30.38 in Calm     54 % 0.00 in
10:33 54.3 °F 37.0 °F 30.38 in West 1.2 mph 1.2 mph 52 % 0.00 in
10:43 54.8 °F 37.5 °F 30.38 in Calm     52 % 0.00 in
10:48 55.0 °F 37.2 °F 30.37 in Calm     51 % 0.00 in
10:53 55.6 °F 38.2 °F 30.37 in NW 1.2 mph 1.2 mph 52 % 0.00 in
10:58 56.0 °F 37.6 °F 30.37 in NW 1.2 mph 1.2 mph 50 % 0.00 in
11:03 56.1 °F 37.2 °F 30.36 in Calm     49 % 0.00 in
11:08 56.8 °F 37.8 °F 30.36 in Calm     49 % 0.00 in
11:13 57.1 °F 38.6 °F 30.36 in SSE 1.2 mph   50 % 0.00 in
11:23 57.3 °F 37.2 °F 30.35 in Calm   0.1 mph 47 % 0.00 in
11:28 57.6 °F 38.0 °F 30.35 in Calm     48 % 0.00 in
11:33 57.9 °F 37.8 °F 30.35 in SE 1.2 mph   47 % 0.00 in
11:43 59.1 °F 39.4 °F 30.34 in SSW 1.2 mph   48 % 0.00 in
11:48 59.0 °F 38.2 °F 30.34 in West 1.2 mph 1.2 mph 46 % 0.00 in
11:53 58.8 °F 38.6 °F 30.34 in SW 1.2 mph 1.2 mph 47 % 0.00 in
11:58 59.0 °F 38.8 °F 30.34 in Calm     47 % 0.00 in
12:03 59.3 °F 37.9 °F 30.34 in NW 1.2 mph 1.2 mph 45 % 0.00 in
12:13 59.3 °F 38.5 °F 30.33 in Calm     46 % 0.00 in
12:18 59.5 °F 38.7 °F 30.33 in Calm     46 % 0.00 in
12:23 59.9 °F 39.1 °F 30.33 in SSW 1.2 mph   46 % 0.00 in
12:29 60.3 °F 38.3 °F 30.32 in WNW 1.2 mph 1.2 mph 44 % 0.00 in
12:34 60.6 °F 39.1 °F 30.32 in Calm     45 % 0.00 in
12:39 60.8 °F 38.7 °F 30.32 in Calm     44 % 0.00 in
12:44 61.1 °F 39.0 °F 30.32 in Calm     44 % 0.00 in
12:49 61.1 °F 39.0 °F 30.31 in WNW 1.2 mph 1.2 mph 44 % 0.00 in
12:54 61.1 °F 38.4 °F 30.31 in Calm     43 % 0.00 in
12:59 61.2 °F 38.5 °F 30.31 in NW 2.3 mph 2.3 mph 43 % 0.00 in
13:04 61.3 °F 38.0 °F 30.31 in NW 1.2 mph 1.2 mph 42 % 0.00 in
13:09 61.6 °F 38.9 °F 30.31 in Calm     43 % 0.00 in
13:14 62.0 °F 38.0 °F 30.31 in NW 1.0 mph 1.0 mph 41 % 0.00 in
13:29 62.7 °F 38.6 °F 30.30 in WNW 2.3 mph 2.3 mph 41 % 0.00 in
13:39 62.7 °F 38.0 °F 30.29 in NW 1.2 mph   40 % 0.00 in
13:49 63.1 °F 37.7 °F 30.29 in WNW 1.2 mph   39 % 0.00 in
13:54 63.2 °F 37.8 °F 30.29 in Calm     39 % 0.00 in
13:59 63.4 °F 38.6 °F 30.29 in Calm     40 % 0.00 in
14:04 63.7 °F 38.3 °F 30.29 in Calm     39 % 0.00 in
14:09 64.0 °F 37.9 °F 30.28 in Calm     38 % 0.00 in
14:14 64.2 °F 38.7 °F 30.28 in Calm     39 % 0.00 in
14:19 64.3 °F 38.8 °F 30.28 in Calm     39 % 0.00 in
14:24 64.2 °F 38.0 °F 30.28 in WNW 1.2 mph 1.2 mph 38 % 0.00 in
14:29 64.2 °F 38.0 °F 30.28 in NW 2.3 mph   38 % 0.00 in
14:39 64.3 °F 38.1 °F 30.28 in North 1.2 mph   38 % 0.00 in
14:44 64.3 °F 38.8 °F 30.27 in North 2.3 mph 2.3 mph 39 % 0.00 in
14:49 64.2 °F 39.4 °F 30.27 in WNW 1.2 mph 1.2 mph 40 % 0.00 in
14:54 64.0 °F 38.5 °F 30.27 in NW 1.2 mph 1.2 mph 39 % 0.00 in
14:59 63.9 °F 38.4 °F 30.27 in WNW 1.2 mph 1.2 mph 39 % 0.00 in
15:04 63.9 °F 39.1 °F 30.27 in NW 1.2 mph 1.2 mph 40 % 0.00 in
15:19 63.7 °F 38.3 °F 30.27 in NW 1.2 mph 1.2 mph 39 % 0.00 in
15:29 63.6 °F 38.2 °F 30.27 in WNW 3.5 mph 3.5 mph 39 % 0.00 in
15:34 63.4 °F 38.6 °F 30.27 in NW 2.3 mph 2.3 mph 40 % 0.00 in
15:44 62.9 °F 38.8 °F 30.27 in NW 2.3 mph 2.3 mph 41 % 0.00 in
15:49 62.8 °F 39.4 °F 30.27 in NW 1.2 mph 1.2 mph 42 % 0.00 in
15:54 62.6 °F 39.8 °F 30.27 in WNW 1.2 mph   43 % 0.00 in
15:59 62.4 °F 39.0 °F 30.28 in NNW 1.2 mph 1.2 mph 42 % 0.00 in
16:04 62.1 °F 39.3 °F 30.28 in Calm     43 % 0.00 in
16:09 61.6 °F 38.9 °F 30.28 in NW 1.2 mph   43 % 0.00 in
16:19 60.6 °F 39.1 °F 30.28 in Calm     45 % 0.00 in
16:24 59.9 °F 39.1 °F 30.28 in Calm     46 % 0.00 in
16:34 58.5 °F 39.4 °F 30.28 in Calm     49 % 0.00 in
16:45 56.7 °F 39.7 °F 30.28 in Calm     53 % 0.00 in
16:50 55.9 °F 39.5 °F 30.29 in Calm     54 % 0.00 in
17:05 53.9 °F 39.5 °F 30.29 in Calm     58 % 0.00 in
17:10 53.6 °F 39.6 °F 30.29 in Calm     59 % 0.00 in
17:20 52.8 °F 39.7 °F 30.29 in Calm     61 % 0.00 in
17:25 52.4 °F 39.3 °F 30.29 in Calm     61 % 0.00 in
17:30 52.0 °F 39.8 °F 30.29 in Calm     63 % 0.00 in
17:35 51.4 °F 39.6 °F 30.30 in Calm     64 % 0.00 in
17:40 50.8 °F 39.5 °F 30.30 in Calm     65 % 0.00 in
17:50 49.7 °F 39.2 °F 30.30 in Calm     67 % 0.00 in
17:55 49.4 °F 39.7 °F 30.30 in Calm     69 % 0.00 in
18:05 49.0 °F 39.3 °F 30.30 in Calm     69 % 0.00 in
18:10 48.7 °F 39.4 °F 30.31 in Calm     70 % 0.00 in
18:15 48.5 °F 39.5 °F 30.31 in Calm     71 % 0.00 in
18:20 48.6 °F 39.6 °F 30.31 in Calm     71 % 0.00 in
18:25 48.4 °F 39.4 °F 30.31 in Calm     71 % 0.00 in
18:30 47.9 °F 39.7 °F 30.31 in Calm     73 % 0.00 in
18:35 47.3 °F 39.4 °F 30.31 in Calm     74 % 0.00 in
18:40 47.0 °F 39.5 °F 30.31 in Calm     75 % 0.00 in
18:45 47.1 °F 39.6 °F 30.31 in Calm     75 % 0.00 in
18:50 47.2 °F 39.7 °F 30.31 in Calm     75 % 0.00 in
18:55 47.2 °F 39.3 °F 30.32 in Calm     74 % 0.00 in
19:05 47.4 °F 39.2 °F 30.32 in Calm     73 % 0.00 in
19:10 47.7 °F 39.1 °F 30.32 in Calm     72 % 0.00 in
19:17 47.4 °F 39.2 °F 30.32 in Calm     73 % 0.00 in
19:19 47.3 °F 39.1 °F 30.32 in Calm     73 % 0.00 in
19:22 47.3 °F 39.1 °F 30.32 in Calm     73 % 0.00 in
19:24 47.4 °F 38.8 °F 30.32 in Calm     72 % 0.00 in
19:25 47.5 °F 38.9 °F 30.32 in Calm     72 % 0.00 in
19:27 47.6 °F 39.0 °F 30.32 in Calm     72 % 0.00 in
19:32 47.5 °F 38.9 °F 30.32 in Calm     72 % 0.00 in
19:37 47.3 °F 38.7 °F 30.32 in Calm     72 % 0.00 in
19:42 47.0 °F 38.8 °F 30.32 in Calm     73 % 0.00 in
19:47 46.7 °F 38.9 °F 30.32 in Calm     74 % 0.00 in
19:52 46.3 °F 38.5 °F 30.32 in Calm     74 % 0.00 in
19:57 46.0 °F 38.9 °F 30.32 in Calm     76 % 0.00 in
20:02 45.8 °F 38.7 °F 30.32 in Calm     76 % 0.00 in
20:07 45.3 °F 38.5 °F 30.32 in Calm     77 % 0.00 in
20:12 44.9 °F 38.5 °F 30.33 in Calm     78 % 0.00 in
20:17 44.4 °F 38.0 °F 30.33 in Calm     78 % 0.00 in
20:27 44.1 °F 38.0 °F 30.33 in Calm     79 % 0.00 in
20:37 44.5 °F 37.7 °F 30.33 in Calm     77 % 0.00 in
20:42 44.7 °F 37.6 °F 30.33 in Calm     76 % 0.00 in
21:07 43.5 °F 37.4 °F 30.33 in Calm     79 % 0.00 in
21:12 43.2 °F 37.8 °F 30.33 in Calm     81 % 0.00 in
21:17 43.1 °F 37.7 °F 30.33 in Calm     81 % 0.00 in
21:22 43.0 °F 37.6 °F 30.33 in Calm     81 % 0.00 in
21:27 42.9 °F 37.5 °F 30.33 in Calm     81 % 0.00 in
21:32 42.7 °F 37.6 °F 30.33 in Calm     82 % 0.00 in
21:37 42.7 °F 37.6 °F 30.33 in Calm     82 % 0.00 in
21:52 42.4 °F 37.3 °F 30.33 in Calm     82 % 0.00 in
22:02 42.3 °F 37.2 °F 30.33 in Calm     82 % 0.00 in
22:07 42.3 °F 37.2 °F 30.33 in Calm     82 % 0.00 in
22:17 42.1 °F 37.0 °F 30.33 in Calm     82 % 0.00 in
22:22 42.0 °F 36.9 °F 30.34 in Calm     82 % 0.00 in
22:28 41.8 °F 36.7 °F 30.34 in Calm     82 % 0.00 in
22:33 41.5 °F 36.7 °F 30.34 in Calm     83 % 0.00 in
22:38 41.1 °F 36.3 °F 30.34 in Calm     83 % 0.00 in
22:43 40.6 °F 35.8 °F 30.34 in Calm     83 % 0.00 in
22:48 40.4 °F 35.9 °F 30.34 in Calm     84 % 0.00 in
22:53 40.4 °F 35.9 °F 30.35 in Calm     84 % 0.00 in
23:03 40.2 °F 36.3 °F 30.34 in Calm     86 % 0.00 in
23:13 40.0 °F 35.9 °F 30.34 in Calm     85 % 0.00 in
23:18 40.1 °F 36.0 °F 30.34 in Calm     85 % 0.00 in
23:23 40.3 °F 36.1 °F 30.34 in Calm     85 % 0.00 in
23:53 40.5 °F 35.7 °F 30.34 in Calm     83 % 0.00 in
23:58 40.4 °F 35.9 °F 30.33 in Calm     84 % 0.00 in
Park Place, Exeter, Tulare County, California, USA
Compliments of Weather Underground - 2.5 mb